createdAt,value
2023-06-09T00:02:04.860Z,12
2023-06-09T00:04:35.499Z,12
2023-06-09T00:07:05.958Z,12
2023-06-09T00:09:36.693Z,12
2023-06-09T00:12:07.345Z,13
2023-06-09T00:14:38.331Z,15
2023-06-09T00:17:07.385Z,13
2023-06-09T00:19:37.966Z,16
2023-06-09T00:22:09.650Z,15
2023-06-09T00:24:40.640Z,16
2023-06-09T00:27:12.010Z,16
2023-06-09T00:29:43.461Z,16
2023-06-09T00:32:15.505Z,16
2023-06-09T00:34:46.479Z,16
2023-06-09T00:37:15.725Z,16
2023-06-09T00:39:46.546Z,16
2023-06-09T00:42:17.116Z,17
2023-06-09T00:44:48.256Z,16
2023-06-09T00:47:19.187Z,16
2023-06-09T00:49:49.783Z,16
2023-06-09T00:52:20.661Z,16
2023-06-09T00:54:51.769Z,12
2023-06-09T00:57:22.612Z,16
2023-06-09T00:59:53.360Z,16
2023-06-09T01:02:25.923Z,16
2023-06-09T01:04:57.010Z,20
2023-06-09T01:07:27.211Z,20
2023-06-09T01:09:58.053Z,20
2023-06-09T01:12:30.408Z,20
2023-06-09T01:15:01.522Z,19
2023-06-09T01:17:32.586Z,16
2023-06-09T01:20:03.555Z,20
2023-06-09T01:22:34.692Z,20
2023-06-09T01:25:05.620Z,18
2023-06-09T01:27:36.524Z,16
2023-06-09T01:30:07.288Z,16
2023-06-09T01:32:38.287Z,16
2023-06-09T01:35:09.015Z,16
2023-06-09T01:37:39.543Z,16
2023-06-09T01:40:10.663Z,17
2023-06-09T01:42:41.479Z,16
2023-06-09T01:45:12.652Z,16
2023-06-09T01:47:43.328Z,16
2023-06-09T01:50:14.416Z,16
2023-06-09T01:52:45.513Z,19
2023-06-09T01:55:16.468Z,17
2023-06-09T01:57:47.079Z,20
2023-06-09T02:00:18.076Z,20
2023-06-09T02:02:48.856Z,17
2023-06-09T02:05:20.692Z,20
2023-06-09T02:07:51.843Z,20
2023-06-09T02:10:22.577Z,20
2023-06-09T02:12:53.625Z,20
2023-06-09T02:15:24.643Z,20
2023-06-09T02:17:55.462Z,20
2023-06-09T02:20:26.472Z,19
2023-06-09T02:22:57.912Z,20
2023-06-09T02:25:28.610Z,20
2023-06-09T02:27:59.565Z,20
2023-06-09T02:30:30.611Z,20
2023-06-09T02:33:01.382Z,19
2023-06-09T02:35:32.192Z,20
2023-06-09T02:38:02.934Z,20
2023-06-09T02:40:33.998Z,16
2023-06-09T02:43:04.803Z,16
2023-06-09T02:45:35.528Z,16
2023-06-09T02:48:06.171Z,20
2023-06-09T02:50:37.188Z,17
2023-06-09T02:53:08.136Z,19
2023-06-09T02:55:39.062Z,16
2023-06-09T02:58:09.700Z,20
2023-06-09T03:00:40.782Z,16
2023-06-09T03:03:11.461Z,13
2023-06-09T03:05:42.602Z,16
2023-06-09T03:08:13.394Z,16
2023-06-09T03:10:45.701Z,14
2023-06-09T03:13:16.476Z,12
2023-06-09T03:15:47.191Z,17
2023-06-09T03:18:18.090Z,16
2023-06-09T03:20:48.892Z,15
2023-06-09T03:23:19.879Z,16
2023-06-09T03:25:50.913Z,16
2023-06-09T03:28:21.888Z,16
2023-06-09T03:30:52.719Z,16
2023-06-09T03:33:23.580Z,16
2023-06-09T03:35:54.004Z,16
2023-06-09T03:38:24.665Z,16
2023-06-09T03:40:55.983Z,12
2023-06-09T03:43:26.934Z,16
2023-06-09T03:45:58.000Z,16
2023-06-09T03:48:29.613Z,16
2023-06-09T03:51:00.720Z,12
2023-06-09T03:53:30.038Z,16
2023-06-09T03:56:00.902Z,20
2023-06-09T03:58:31.563Z,16
2023-06-09T04:01:02.764Z,16
2023-06-09T04:03:33.603Z,16
2023-06-09T04:06:04.759Z,16
2023-06-09T04:08:34.031Z,19
2023-06-09T04:11:04.956Z,19
2023-06-09T04:13:35.542Z,17
2023-06-09T04:16:06.761Z,20
2023-06-09T04:18:37.687Z,23
2023-06-09T04:21:08.072Z,20
2023-06-09T04:23:39.026Z,20
2023-06-09T04:26:09.885Z,20
2023-06-09T04:28:40.968Z,20
2023-06-09T04:31:12.086Z,24
2023-06-09T04:33:43.166Z,24
2023-06-09T04:36:13.937Z,24
2023-06-09T04:38:44.392Z,24
2023-06-09T04:41:15.566Z,20
2023-06-09T04:43:46.497Z,21
2023-06-09T04:46:17.825Z,20
2023-06-09T04:48:49.571Z,20
2023-06-09T04:51:20.423Z,20
2023-06-09T04:53:51.349Z,20
2023-06-09T04:56:22.358Z,24
2023-06-09T04:58:55.118Z,22
2023-06-09T05:01:26.125Z,24
2023-06-09T05:03:54.973Z,24
2023-06-09T05:06:25.986Z,24
2023-06-09T05:08:56.682Z,20
2023-06-09T05:11:27.353Z,20
2023-06-09T05:13:58.078Z,24
2023-06-09T05:16:29.203Z,24
2023-06-09T05:19:00.740Z,24
2023-06-09T05:21:31.804Z,24
2023-06-09T05:24:02.746Z,23
2023-06-09T05:26:33.392Z,22
2023-06-09T05:29:12.231Z,21
2023-06-09T05:31:43.204Z,22
2023-06-09T05:34:13.879Z,24
2023-06-09T05:36:44.401Z,24
2023-06-09T05:39:15.024Z,22
2023-06-09T05:41:45.545Z,22
2023-06-09T05:44:15.420Z,24
2023-06-09T05:46:46.195Z,24
2023-06-09T05:49:16.626Z,24
2023-06-09T05:51:47.440Z,24
2023-06-09T05:54:18.508Z,24
2023-06-09T05:56:51.816Z,24
2023-06-09T05:59:22.217Z,20
2023-06-09T06:01:52.911Z,20
2023-06-09T06:04:23.726Z,20
2023-06-09T06:06:58.510Z,23
2023-06-09T06:09:29.958Z,24
2023-06-09T06:12:00.618Z,24
2023-06-09T06:14:31.299Z,24
2023-06-09T06:17:04.363Z,23
2023-06-09T06:19:37.069Z,24
2023-06-09T06:22:07.766Z,24
2023-06-09T06:24:38.891Z,26
2023-06-09T06:27:09.657Z,24
2023-06-09T06:29:40.276Z,24
2023-06-09T06:32:13.144Z,24
2023-06-09T06:34:43.512Z,25
2023-06-09T06:37:14.265Z,26
2023-06-09T06:39:45.661Z,26
2023-06-09T06:42:16.216Z,28
2023-06-09T06:44:46.576Z,28
2023-06-09T06:47:17.452Z,28
2023-06-09T06:49:48.092Z,28
2023-06-09T06:52:18.940Z,28
2023-06-09T06:54:49.644Z,28
2023-06-09T06:57:20.473Z,28
2023-06-09T06:59:50.976Z,28
2023-06-09T07:02:21.952Z,29
2023-06-09T07:04:51.056Z,28
2023-06-09T07:07:21.697Z,28
2023-06-09T07:09:52.536Z,29
2023-06-09T07:12:23.535Z,28
2023-06-09T07:14:52.793Z,30
2023-06-09T07:17:23.565Z,32
2023-06-09T07:19:55.653Z,29
2023-06-09T07:22:26.391Z,28
2023-06-09T07:24:58.884Z,29
2023-06-09T07:27:27.978Z,31
2023-06-09T07:30:00.311Z,32
2023-06-09T07:32:31.583Z,32
2023-06-09T07:35:04.267Z,31
2023-06-09T07:37:35.401Z,32
2023-06-09T07:40:17.789Z,29
2023-06-09T07:42:37.117Z,32
2023-06-09T07:45:06.880Z,32
2023-06-09T07:47:40.502Z,28
2023-06-09T07:50:11.402Z,32
2023-06-09T07:52:42.547Z,32
2023-06-09T07:55:15.556Z,32
2023-06-09T07:57:44.695Z,32
2023-06-09T08:00:15.480Z,32
2023-06-09T08:02:45.902Z,36
2023-06-09T08:05:19.817Z,32
2023-06-09T08:07:50.292Z,32
2023-06-09T08:10:20.684Z,32
2023-06-09T08:12:51.752Z,34
2023-06-09T08:15:22.710Z,34
2023-06-09T08:17:53.542Z,32
2023-06-09T08:20:24.748Z,32
2023-06-09T08:22:57.989Z,32
2023-06-09T08:25:28.439Z,36
2023-06-09T08:28:00.016Z,34
2023-06-09T08:30:39.790Z,34
2023-06-09T08:33:11.158Z,33
2023-06-09T08:35:42.075Z,36
2023-06-09T08:38:12.914Z,32
2023-06-09T08:40:51.701Z,36
2023-06-09T08:43:26.506Z,32
2023-06-09T08:45:58.391Z,33
2023-06-09T08:48:29.193Z,34
2023-06-09T08:51:01.561Z,32
2023-06-09T08:53:33.856Z,36
2023-06-09T08:56:04.783Z,36
2023-06-09T08:58:36.899Z,32
2023-06-09T09:01:07.910Z,37
2023-06-09T09:03:38.723Z,36
2023-06-09T09:06:15.224Z,35
2023-06-09T09:08:46.703Z,38
2023-06-09T09:11:17.479Z,35
2023-06-09T09:13:49.134Z,34
2023-06-09T09:16:20.165Z,35
2023-06-09T09:18:57.270Z,34
2023-06-09T09:21:30.266Z,32
2023-06-09T09:24:05.714Z,35
2023-06-09T09:26:41.312Z,36
2023-06-09T09:29:10.093Z,36
2023-06-09T09:31:44.084Z,39
2023-06-09T09:34:14.671Z,40
2023-06-09T09:36:48.392Z,36
2023-06-09T09:39:19.359Z,40
2023-06-09T09:41:52.305Z,36
2023-06-09T09:44:22.885Z,40
2023-06-09T09:46:54.686Z,42
2023-06-09T09:49:28.573Z,44
2023-06-09T09:51:59.362Z,40
2023-06-09T09:54:32.688Z,42
2023-06-09T09:57:03.488Z,46
2023-06-09T09:59:34.796Z,48
2023-06-09T10:02:05.492Z,64
2023-06-09T10:04:38.570Z,62
2023-06-09T10:07:09.774Z,64
2023-06-09T10:09:44.825Z,48
2023-06-09T10:12:15.800Z,58
2023-06-09T10:14:49.704Z,56
2023-06-09T10:17:20.927Z,48
2023-06-09T10:19:51.776Z,52
2023-06-09T10:22:22.749Z,58
2023-06-09T10:24:53.662Z,56
2023-06-09T10:27:25.773Z,52
2023-06-09T10:29:56.772Z,60
2023-06-09T10:32:29.561Z,64
2023-06-09T10:35:00.369Z,75
2023-06-09T10:37:31.371Z,68
2023-06-09T10:40:01.794Z,75
2023-06-09T10:42:31.245Z,78
2023-06-09T10:45:03.141Z,81
2023-06-09T10:47:46.020Z,86
2023-06-09T10:50:22.580Z,85
2023-06-09T10:52:53.582Z,78
2023-06-09T10:55:24.220Z,88
2023-06-09T10:57:55.720Z,91
2023-06-09T11:00:30.510Z,88
2023-06-09T11:02:59.490Z,88
2023-06-09T11:05:29.814Z,80
2023-06-09T11:08:00.164Z,83
2023-06-09T11:10:31.523Z,99
2023-06-09T11:13:02.009Z,87
2023-06-09T11:15:36.307Z,96
2023-06-09T11:18:05.591Z,96
2023-06-09T11:20:41.148Z,88
2023-06-09T11:23:15.515Z,91
2023-06-09T11:25:47.915Z,77
2023-06-09T11:28:18.093Z,82
2023-06-09T11:30:52.613Z,83
2023-06-09T11:33:21.747Z,83
2023-06-09T11:35:52.229Z,76
2023-06-09T11:38:26.374Z,73
2023-06-09T11:41:03.127Z,60
2023-06-09T11:43:38.364Z,68
2023-06-09T11:46:09.052Z,73
2023-06-09T11:48:44.036Z,54
2023-06-09T11:51:13.634Z,62
2023-06-09T11:53:44.266Z,67
2023-06-09T11:56:14.950Z,69
2023-06-09T11:58:52.009Z,67
2023-06-09T12:01:23.005Z,68
2023-06-09T12:03:53.753Z,70
2023-06-09T12:06:26.535Z,57
2023-06-09T12:08:56.484Z,56
2023-06-09T12:11:31.129Z,68
2023-06-09T12:14:03.250Z,60
2023-06-09T12:16:34.287Z,53
2023-06-09T12:19:05.020Z,56
2023-06-09T12:21:44.826Z,52
2023-06-09T12:24:15.369Z,52
2023-06-09T12:26:48.177Z,48
2023-06-09T12:29:18.891Z,48
2023-06-09T12:31:53.472Z,43
2023-06-09T12:34:28.336Z,40
2023-06-09T12:36:59.745Z,39
2023-06-09T12:39:30.807Z,38
2023-06-09T12:42:04.554Z,36
2023-06-09T12:44:38.975Z,41
2023-06-09T12:47:18.435Z,32
2023-06-09T12:49:53.278Z,35
2023-06-09T12:52:23.994Z,34
2023-06-09T12:55:10.044Z,34
2023-06-09T12:57:29.097Z,36
2023-06-09T13:00:11.508Z,37
2023-06-09T13:02:31.020Z,36
2023-06-09T13:05:04.009Z,36
2023-06-09T13:07:34.745Z,40
2023-06-09T13:10:05.557Z,36
2023-06-09T13:12:36.130Z,36
2023-06-09T13:15:07.167Z,36
2023-06-09T13:17:37.996Z,36
2023-06-09T13:20:08.633Z,52
2023-06-09T13:22:39.532Z,44
2023-06-09T13:25:10.122Z,39
2023-06-09T13:27:42.165Z,37
2023-06-09T13:30:26.074Z,41
2023-06-09T13:32:57.379Z,35
2023-06-09T13:35:26.459Z,35
2023-06-09T13:37:57.415Z,32
2023-06-09T13:40:30.505Z,36
2023-06-09T13:43:02.478Z,32
2023-06-09T13:45:34.308Z,32
2023-06-09T13:48:06.042Z,36
2023-06-09T13:50:36.639Z,32
2023-06-09T13:53:07.498Z,30
2023-06-09T13:55:38.233Z,35
2023-06-09T13:58:08.813Z,32
2023-06-09T14:00:40.123Z,28
2023-06-09T14:03:10.932Z,31
2023-06-09T14:05:41.457Z,32
2023-06-09T14:08:12.082Z,28
2023-06-09T14:10:45.508Z,28
2023-06-09T14:13:16.205Z,28
2023-06-09T14:15:46.664Z,28
2023-06-09T14:18:16.243Z,23
2023-06-09T14:20:46.571Z,27
2023-06-09T14:23:17.063Z,24
2023-06-09T14:25:47.261Z,24
2023-06-09T14:28:16.573Z,20
2023-06-09T14:30:48.034Z,24
2023-06-09T14:33:18.823Z,24
2023-06-09T14:35:51.117Z,23
2023-06-09T14:38:21.548Z,20
2023-06-09T14:40:54.248Z,20
2023-06-09T14:43:23.270Z,20
2023-06-09T14:45:53.942Z,20
2023-06-09T14:48:27.017Z,24
2023-06-09T14:51:04.486Z,20
2023-06-09T14:53:35.135Z,28
2023-06-09T14:56:06.010Z,20
2023-06-09T14:58:35.280Z,20
2023-06-09T15:01:05.513Z,24
2023-06-09T15:03:38.059Z,20
2023-06-09T15:06:09.339Z,19
2023-06-09T15:08:39.321Z,16
2023-06-09T15:11:10.004Z,20
2023-06-09T15:13:41.810Z,16
2023-06-09T15:16:12.802Z,18
2023-06-09T15:18:43.302Z,16
2023-06-09T15:21:14.127Z,17
2023-06-09T15:23:44.570Z,20
2023-06-09T15:26:14.966Z,20
2023-06-09T15:28:47.081Z,20
2023-06-09T15:33:50.609Z,17
2023-06-09T15:36:20.162Z,16
2023-06-09T15:38:56.536Z,16
2023-06-09T15:41:28.353Z,20
2023-06-09T15:44:04.056Z,16
2023-06-09T15:46:37.009Z,19
2023-06-09T15:49:16.484Z,16
2023-06-09T15:51:45.475Z,16
2023-06-09T15:54:15.236Z,16
2023-06-09T15:57:00.312Z,12
2023-06-09T15:59:42.710Z,15
2023-06-09T16:02:21.231Z,13
2023-06-09T16:04:51.536Z,16
2023-06-09T16:10:12.641Z,16
2023-06-09T16:12:42.263Z,16
2023-06-09T16:15:12.403Z,16
2023-06-09T16:17:43.093Z,12
2023-06-09T16:20:20.963Z,12
2023-06-09T16:22:51.882Z,12
2023-06-09T16:25:22.239Z,12
2023-06-09T16:27:52.608Z,12
2023-06-09T16:30:23.048Z,12
2023-06-09T16:32:53.578Z,12
2023-06-09T16:35:24.190Z,12
2023-06-09T16:37:55.370Z,12
2023-06-09T16:40:26.134Z,8
2023-06-09T16:42:58.908Z,8
2023-06-09T16:45:30.460Z,8
2023-06-09T16:48:00.657Z,8
2023-06-09T16:50:30.915Z,8
2023-06-09T16:53:01.508Z,8
2023-06-09T16:55:31.951Z,8
2023-06-09T16:58:02.615Z,12
2023-06-09T17:00:35.280Z,16
2023-06-09T17:03:06.377Z,17
2023-06-09T17:05:38.856Z,16
2023-06-09T17:08:09.028Z,16
2023-06-09T17:10:39.527Z,16
2023-06-09T17:13:10.371Z,20
2023-06-09T17:15:43.736Z,16
2023-06-09T17:18:14.051Z,19
2023-06-09T17:20:49.384Z,16
2023-06-09T17:23:20.076Z,17
2023-06-09T17:25:53.690Z,16
2023-06-09T17:28:24.208Z,16
2023-06-09T17:30:56.616Z,16
2023-06-09T17:33:27.158Z,16
2023-06-09T17:35:57.577Z,15
2023-06-09T17:38:27.656Z,16
2023-06-09T17:40:59.320Z,16
2023-06-09T17:43:29.844Z,16
2023-06-09T17:45:59.969Z,15
2023-06-09T17:48:32.484Z,16
2023-06-09T17:51:06.221Z,16
2023-06-09T17:53:36.709Z,16
2023-06-09T17:56:10.197Z,14
2023-06-09T17:58:41.875Z,12
2023-06-09T18:01:12.615Z,16
2023-06-09T18:03:43.280Z,16
2023-06-09T18:06:14.554Z,14
2023-06-09T18:08:43.683Z,12
2023-06-09T18:11:18.294Z,12
2023-06-09T18:13:48.963Z,12
2023-06-09T18:16:19.786Z,12
2023-06-09T18:18:51.411Z,12
2023-06-09T18:21:22.199Z,12
2023-06-09T18:23:56.930Z,12
2023-06-09T18:26:31.521Z,16
2023-06-09T18:29:02.632Z,14
2023-06-09T18:31:33.256Z,12
2023-06-09T18:34:07.938Z,12
2023-06-09T18:36:42.807Z,12
2023-06-09T18:39:13.293Z,12
2023-06-09T18:41:43.781Z,16
2023-06-09T18:44:18.881Z,16
2023-06-09T18:46:49.185Z,16
2023-06-09T18:49:20.015Z,12
2023-06-09T18:51:50.694Z,16
2023-06-09T18:54:23.391Z,16
2023-06-09T18:57:01.062Z,20
2023-06-09T18:59:33.392Z,20
2023-06-09T19:02:03.854Z,20
2023-06-09T19:04:34.291Z,20
2023-06-09T19:07:04.689Z,16
2023-06-09T19:09:35.195Z,20
2023-06-09T19:12:05.555Z,20
2023-06-09T19:14:37.146Z,20
2023-06-09T19:17:07.710Z,24
2023-06-09T19:19:38.232Z,20
2023-06-09T19:22:08.799Z,20
2023-06-09T19:24:41.086Z,24
2023-06-09T19:27:11.356Z,24
2023-06-09T19:29:41.475Z,20
2023-06-09T19:32:15.939Z,20
2023-06-09T19:34:45.983Z,20
2023-06-09T19:37:25.545Z,24
2023-06-09T19:39:56.137Z,21
2023-06-09T19:42:29.731Z,24
2023-06-09T19:45:00.076Z,23
2023-06-09T19:47:30.638Z,23
2023-06-09T19:50:02.485Z,20
2023-06-09T19:52:33.253Z,21
2023-06-09T19:55:08.924Z,28
2023-06-09T19:57:39.306Z,24
2023-06-09T20:00:13.185Z,26
2023-06-09T20:02:43.650Z,20
2023-06-09T20:05:14.137Z,28
2023-06-09T20:07:44.882Z,21
2023-06-09T20:10:16.165Z,32
2023-06-09T20:12:49.877Z,20
2023-06-09T20:20:58.631Z,24
2023-06-09T20:23:28.522Z,25
2023-06-09T20:26:04.718Z,28
2023-06-09T20:28:38.073Z,24
2023-06-09T20:31:07.611Z,24
2023-06-09T20:33:48.462Z,26
2023-06-09T20:36:27.520Z,24
2023-06-09T20:39:08.093Z,24
2023-06-09T20:41:43.545Z,24
2023-06-09T20:44:14.025Z,24
2023-06-09T20:46:44.230Z,24
2023-06-09T20:49:14.763Z,24
2023-06-09T20:51:45.248Z,28
2023-06-09T20:54:16.524Z,26
2023-06-09T20:56:47.020Z,24
2023-06-09T20:59:17.584Z,28
2023-06-09T21:01:48.172Z,24
2023-06-09T21:04:18.733Z,28
2023-06-09T21:09:47.971Z,24
2023-06-09T21:12:20.286Z,28
2023-06-09T21:14:51.157Z,24
2023-06-09T21:17:21.598Z,24
2023-06-09T21:19:52.524Z,24
2023-06-09T21:22:22.665Z,24
2023-06-09T21:24:53.353Z,28
2023-06-09T21:27:23.521Z,24
2023-06-09T21:29:54.165Z,24
2023-06-09T21:32:24.294Z,24
2023-06-09T21:34:54.370Z,24
2023-06-09T21:37:24.803Z,24
2023-06-09T21:39:55.198Z,24
2023-06-09T21:42:25.946Z,24
2023-06-09T21:44:56.529Z,24
2023-06-09T21:47:27.081Z,24
2023-06-09T21:49:57.891Z,28
2023-06-09T21:52:28.634Z,28
2023-06-09T21:54:58.895Z,28
2023-06-09T21:57:29.654Z,24
2023-06-09T22:00:00.246Z,23
2023-06-09T22:02:30.884Z,24
2023-06-09T22:05:01.205Z,24
2023-06-09T22:07:31.736Z,24
2023-06-09T22:10:02.459Z,24
2023-06-09T22:12:37.541Z,24
2023-06-09T22:15:11.765Z,24
2023-06-09T22:17:44.679Z,24
2023-06-09T22:20:15.502Z,24
2023-06-09T22:22:46.221Z,23
2023-06-09T22:25:16.960Z,24
2023-06-09T22:27:47.273Z,24
2023-06-09T22:30:17.866Z,24
2023-06-09T22:32:48.227Z,24
2023-06-09T22:35:18.594Z,24
2023-06-09T22:37:49.164Z,24
2023-06-09T22:40:20.713Z,24
2023-06-09T22:42:51.220Z,24
2023-06-09T22:45:22.009Z,24
2023-06-09T22:47:50.845Z,24
2023-06-09T22:50:21.446Z,24
2023-06-09T22:52:52.818Z,24
2023-06-09T22:55:23.741Z,24
2023-06-09T22:57:55.040Z,24
2023-06-09T23:00:25.450Z,24
2023-06-09T23:02:55.917Z,24
2023-06-09T23:05:26.841Z,24
2023-06-09T23:07:57.908Z,24
2023-06-09T23:10:28.596Z,24
2023-06-09T23:13:01.508Z,24
2023-06-09T23:15:32.251Z,24
2023-06-09T23:18:01.698Z,28
2023-06-09T23:20:32.701Z,26
2023-06-09T23:23:03.890Z,28
2023-06-09T23:25:34.698Z,28
2023-06-09T23:28:05.518Z,25
2023-06-09T23:30:36.100Z,25
2023-06-09T23:33:06.729Z,26
2023-06-09T23:35:37.367Z,28
2023-06-09T23:38:06.536Z,28
2023-06-09T23:40:37.319Z,28
2023-06-09T23:43:08.309Z,28
2023-06-09T23:45:39.230Z,28
2023-06-09T23:48:10.270Z,28
2023-06-09T23:50:41.102Z,28
2023-06-09T23:53:12.312Z,25
2023-06-09T23:55:43.562Z,27
2023-06-09T23:58:14.433Z,24
